createdAt,value
2018-07-03T00:00:40.000Z,4.30
2018-07-03T00:01:39.986Z,4.10
2018-07-03T00:02:39.948Z,5.00
2018-07-03T00:03:39.954Z,4.10
2018-07-03T00:04:39.881Z,11.20
2018-07-03T00:05:39.850Z,21.40
2018-07-03T00:06:39.825Z,29.50
2018-07-03T00:07:39.791Z,34.30
2018-07-03T00:08:39.766Z,35.20
2018-07-03T00:09:39.738Z,36.80
2018-07-03T00:10:39.698Z,40.20
2018-07-03T00:11:39.818Z,52.30
2018-07-03T00:12:39.639Z,45.70
2018-07-03T00:13:39.642Z,41.40
2018-07-03T00:14:39.802Z,36.50
2018-07-03T00:15:39.557Z,37.70
2018-07-03T00:16:39.523Z,35.20
2018-07-03T00:17:39.641Z,39.70
2018-07-03T00:18:39.467Z,34.20
2018-07-03T00:19:39.439Z,28.10
2018-07-03T00:20:39.401Z,22.00
2018-07-03T00:21:39.364Z,18.00
2018-07-03T00:22:39.346Z,14.40
2018-07-03T00:23:39.326Z,13.50
2018-07-03T00:24:39.291Z,11.40
2018-07-03T00:25:39.235Z,8.30
2018-07-03T00:26:39.233Z,7.90
2018-07-03T00:27:39.172Z,7.30
2018-07-03T00:28:39.149Z,6.50
2018-07-03T00:29:39.115Z,6.10
2018-07-03T00:30:39.094Z,6.50
2018-07-03T00:31:39.057Z,9.10
2018-07-03T00:32:39.072Z,17.30
2018-07-03T00:33:38.990Z,29.30
2018-07-03T00:34:38.959Z,34.00
2018-07-03T00:35:38.953Z,38.00
2018-07-03T00:36:38.969Z,41.70
2018-07-03T00:37:38.865Z,47.60
2018-07-03T00:38:38.832Z,42.70
2018-07-03T00:39:38.823Z,34.70
2018-07-03T00:40:38.773Z,38.70
2018-07-03T00:41:38.772Z,51.70
2018-07-03T00:42:38.727Z,53.50
2018-07-03T00:43:39.101Z,46.50
2018-07-03T00:44:38.677Z,35.90
2018-07-03T00:45:38.621Z,26.50
2018-07-03T00:46:38.604Z,22.70
2018-07-03T00:47:38.565Z,16.90
2018-07-03T00:48:38.530Z,14.80
2018-07-03T00:49:38.604Z,12.10
2018-07-03T00:50:38.473Z,11.30
2018-07-03T00:51:38.442Z,9.40
2018-07-03T00:52:38.408Z,8.00
2018-07-03T00:53:38.379Z,7.00
2018-07-03T00:54:38.378Z,6.80
2018-07-03T00:55:38.311Z,6.80
2018-07-03T00:56:38.289Z,6.20
2018-07-03T00:57:38.279Z,6.10
2018-07-03T00:58:38.216Z,6.00
2018-07-03T00:59:38.192Z,5.40
2018-07-03T01:00:38.271Z,4.90
2018-07-03T01:01:38.121Z,4.70
2018-07-03T01:02:38.096Z,3.70
2018-07-03T01:03:38.065Z,4.00
2018-07-03T01:04:38.048Z,4.10
2018-07-03T01:05:38.004Z,4.20
2018-07-03T01:06:38.101Z,4.30
2018-07-03T01:07:37.943Z,4.30
2018-07-03T01:08:37.937Z,4.00
2018-07-03T01:09:37.875Z,3.60
2018-07-03T01:10:37.864Z,3.50
2018-07-03T01:11:37.815Z,4.00
2018-07-03T01:12:37.795Z,3.90
2018-07-03T01:13:37.759Z,3.30
2018-07-03T01:14:37.730Z,3.90
2018-07-03T01:15:37.939Z,3.70
2018-07-03T01:16:37.666Z,3.60
2018-07-03T01:17:37.622Z,3.70
2018-07-03T01:18:37.619Z,3.70
2018-07-03T01:19:37.572Z,3.50
2018-07-03T01:20:37.547Z,3.90
2018-07-03T01:21:37.610Z,3.10
2018-07-03T01:22:37.481Z,3.50
2018-07-03T01:23:37.479Z,3.70
2018-07-03T01:24:37.431Z,3.70
2018-07-03T01:25:37.385Z,4.80
2018-07-03T01:26:37.363Z,4.50
2018-07-03T01:27:37.327Z,4.40
2018-07-03T01:28:37.288Z,3.80
2018-07-03T01:29:37.258Z,3.50
2018-07-03T01:30:37.317Z,4.30
2018-07-03T01:31:37.195Z,3.80
2018-07-03T01:32:37.165Z,4.20
2018-07-03T01:33:37.128Z,4.40
2018-07-03T01:34:37.103Z,4.00
2018-07-03T01:35:37.074Z,3.50
2018-07-03T01:36:37.042Z,3.70
2018-07-03T01:37:37.008Z,3.80
2018-07-03T01:38:36.977Z,4.10
2018-07-03T01:39:36.944Z,5.20
2018-07-03T01:40:36.918Z,4.20
2018-07-03T01:41:36.891Z,4.00
2018-07-03T01:42:36.869Z,3.80
2018-07-03T01:43:36.827Z,3.30
2018-07-03T01:44:36.792Z,3.60
2018-07-03T01:45:36.757Z,4.00
2018-07-03T01:46:36.729Z,3.70
2018-07-03T01:47:37.050Z,4.00
2018-07-03T01:48:36.662Z,3.60
2018-07-03T01:49:36.636Z,3.20
2018-07-03T01:50:36.641Z,3.60
2018-07-03T01:51:36.590Z,3.90
2018-07-03T01:52:36.536Z,3.60
2018-07-03T01:53:36.629Z,4.30
2018-07-03T01:54:36.472Z,4.40
2018-07-03T01:55:36.459Z,4.00
2018-07-03T01:56:36.421Z,3.60
2018-07-03T01:57:36.403Z,3.40
2018-07-03T01:58:36.366Z,3.80
2018-07-03T01:59:36.329Z,4.20
2018-07-03T02:00:36.304Z,3.60
2018-07-03T02:01:36.259Z,4.20
2018-07-03T02:02:36.226Z,4.70
2018-07-03T02:03:36.206Z,3.60
2018-07-03T02:04:36.170Z,3.70
2018-07-03T02:05:36.141Z,3.70
2018-07-03T02:06:36.152Z,4.40
2018-07-03T02:07:36.081Z,3.70
2018-07-03T02:08:36.044Z,3.90
2018-07-03T02:09:36.019Z,3.70
2018-07-03T02:10:35.980Z,3.60
2018-07-03T02:11:35.944Z,3.80
2018-07-03T02:12:35.915Z,3.50
2018-07-03T02:13:35.878Z,3.60
2018-07-03T02:14:35.873Z,3.60
2018-07-03T02:15:35.821Z,3.80
2018-07-03T02:16:35.809Z,3.60
2018-07-03T02:17:35.756Z,3.20
2018-07-03T02:18:35.745Z,3.30
2018-07-03T02:19:35.940Z,3.20
2018-07-03T02:20:35.735Z,3.10
2018-07-03T02:21:35.645Z,3.60
2018-07-03T02:22:35.608Z,3.90
2018-07-03T02:23:35.562Z,3.70
2018-07-03T02:24:35.532Z,3.50
2018-07-03T02:25:35.601Z,3.30
2018-07-03T02:26:35.504Z,4.00
2018-07-03T02:27:35.446Z,3.10
2018-07-03T02:28:35.416Z,3.50
2018-07-03T02:29:35.395Z,3.60
2018-07-03T02:30:35.371Z,3.80
2018-07-03T02:31:35.310Z,3.30
2018-07-03T02:32:35.281Z,3.60
2018-07-03T02:33:35.281Z,3.50
2018-07-03T02:34:35.218Z,3.60
2018-07-03T02:36:35.157Z,2.50
2018-07-03T02:37:35.125Z,3.30
2018-07-03T02:38:35.088Z,3.90
2018-07-03T02:39:35.056Z,3.70
2018-07-03T02:40:35.033Z,3.90
2018-07-03T02:41:35.006Z,3.20
2018-07-03T02:42:34.966Z,3.70
2018-07-03T02:43:34.954Z,3.40
2018-07-03T02:44:34.898Z,3.40
2018-07-03T02:45:34.867Z,3.40
2018-07-03T02:46:34.844Z,3.80
2018-07-03T02:47:34.838Z,3.40
2018-07-03T02:48:34.781Z,3.30
2018-07-03T02:49:34.754Z,3.00
2018-07-03T02:50:34.711Z,3.60
2018-07-03T02:51:34.825Z,3.80
2018-07-03T02:52:34.667Z,3.50
2018-07-03T02:53:34.615Z,3.90
2018-07-03T02:54:34.585Z,3.90
2018-07-03T02:55:34.555Z,3.50
2018-07-03T02:56:34.525Z,3.40
2018-07-03T02:57:34.695Z,4.00
2018-07-03T02:58:34.462Z,3.80
2018-07-03T02:59:34.422Z,3.60
2018-07-03T03:00:34.401Z,3.50
2018-07-03T03:01:34.357Z,3.70
2018-07-03T03:02:34.328Z,3.70
2018-07-03T03:03:34.301Z,3.00
2018-07-03T03:04:34.262Z,3.40
2018-07-03T03:05:34.233Z,3.60
2018-07-03T03:06:34.202Z,3.50
2018-07-03T03:07:34.178Z,3.60
2018-07-03T03:08:34.140Z,3.40
2018-07-03T03:09:34.108Z,3.40
2018-07-03T03:10:34.073Z,3.00
2018-07-03T03:11:34.042Z,3.30
2018-07-03T03:12:34.016Z,3.10
2018-07-03T03:13:34.067Z,3.30
2018-07-03T03:14:33.952Z,2.90
2018-07-03T03:15:33.922Z,3.10
2018-07-03T03:16:33.885Z,3.60
2018-07-03T03:17:33.854Z,3.40
2018-07-03T03:18:33.827Z,3.40
2018-07-03T03:19:33.787Z,3.60
2018-07-03T03:20:33.758Z,4.00
2018-07-03T03:21:33.814Z,3.50
2018-07-03T03:22:33.697Z,3.70
2018-07-03T03:23:33.764Z,3.60
2018-07-03T03:24:33.630Z,3.30
2018-07-03T03:25:33.595Z,3.70
2018-07-03T03:26:33.564Z,3.40
2018-07-03T03:27:33.529Z,3.80
2018-07-03T03:28:33.500Z,3.60
2018-07-03T03:29:33.470Z,3.20
2018-07-03T03:30:33.434Z,3.40
2018-07-03T03:31:33.408Z,3.50
2018-07-03T03:32:33.369Z,3.30
2018-07-03T03:33:33.391Z,3.60
2018-07-03T03:34:33.307Z,3.50
2018-07-03T03:35:33.270Z,3.10
2018-07-03T03:36:33.240Z,3.90
2018-07-03T03:37:33.217Z,4.10
2018-07-03T03:38:33.183Z,3.50
2018-07-03T03:39:33.150Z,3.80
2018-07-03T03:40:33.119Z,3.30
2018-07-03T03:41:33.088Z,3.40
2018-07-03T03:42:33.048Z,3.10
2018-07-03T03:43:33.022Z,3.20
2018-07-03T03:44:32.987Z,3.50
2018-07-03T03:45:32.954Z,3.40
2018-07-03T03:46:32.920Z,3.30
2018-07-03T03:47:32.896Z,3.40
2018-07-03T03:48:32.858Z,3.50
2018-07-03T03:49:32.827Z,3.40
2018-07-03T03:50:32.793Z,3.20
2018-07-03T03:51:32.760Z,3.60
2018-07-03T03:52:32.728Z,3.50
2018-07-03T03:53:32.701Z,3.80
2018-07-03T03:54:33.021Z,4.10
2018-07-03T03:55:32.634Z,3.80
2018-07-03T03:56:32.612Z,3.50
2018-07-03T03:57:32.575Z,3.00
2018-07-03T03:58:32.534Z,3.30
2018-07-03T03:59:32.505Z,3.90
2018-07-03T04:00:32.579Z,3.50
2018-07-03T04:01:32.446Z,3.20
2018-07-03T04:02:32.409Z,3.30
2018-07-03T04:03:32.383Z,3.20
2018-07-03T04:04:32.350Z,3.50
2018-07-03T04:05:32.325Z,3.30
2018-07-03T04:06:32.278Z,3.30
2018-07-03T04:07:32.247Z,3.40
2018-07-03T04:08:32.217Z,3.30
2018-07-03T04:09:32.185Z,3.80
2018-07-03T04:10:32.157Z,3.50
2018-07-03T04:11:32.124Z,3.50
2018-07-03T04:12:32.086Z,3.40
2018-07-03T04:13:32.054Z,3.40
2018-07-03T04:14:32.022Z,3.40
2018-07-03T04:15:31.990Z,3.90
2018-07-03T04:16:32.008Z,3.90
2018-07-03T04:17:31.937Z,3.90
2018-07-03T04:18:31.902Z,3.90
2018-07-03T04:19:31.863Z,3.70
2018-07-03T04:20:31.841Z,3.30
2018-07-03T04:21:31.806Z,3.30
2018-07-03T04:22:31.767Z,3.40
2018-07-03T04:23:31.740Z,3.60
2018-07-03T04:24:31.711Z,3.70
2018-07-03T04:25:31.672Z,3.50
2018-07-03T04:26:31.638Z,3.70
2018-07-03T04:27:31.603Z,3.50
2018-07-03T04:28:31.592Z,3.30
2018-07-03T04:29:31.545Z,3.20
2018-07-03T04:30:31.507Z,3.50
2018-07-03T04:31:31.481Z,3.70
2018-07-03T04:32:31.458Z,3.40
2018-07-03T04:33:31.408Z,3.30
2018-07-03T04:34:31.379Z,4.00
2018-07-03T04:35:31.351Z,3.40
2018-07-03T04:36:31.316Z,3.10
2018-07-03T04:37:31.283Z,3.50
2018-07-03T04:38:31.254Z,3.70
2018-07-03T04:39:31.219Z,3.80
2018-07-03T04:40:31.197Z,3.80
2018-07-03T04:41:31.218Z,3.40
2018-07-03T04:42:31.123Z,3.60
2018-07-03T04:43:31.087Z,3.80
2018-07-03T04:44:31.062Z,3.60
2018-07-03T04:45:31.027Z,3.60
2018-07-03T04:46:30.993Z,3.50
2018-07-03T04:47:30.958Z,4.00
2018-07-03T04:48:30.927Z,3.80
2018-07-03T04:49:30.892Z,3.90
2018-07-03T04:50:30.875Z,3.80
2018-07-03T04:51:30.857Z,3.80
2018-07-03T04:52:30.799Z,3.70
2018-07-03T04:53:30.821Z,3.60
2018-07-03T04:54:30.731Z,3.50
2018-07-03T04:55:30.700Z,3.60
2018-07-03T04:56:30.667Z,3.70
2018-07-03T04:57:30.634Z,3.50
2018-07-03T04:58:30.603Z,3.70
2018-07-03T04:59:30.575Z,3.70
2018-07-03T05:00:30.547Z,3.40
2018-07-03T05:01:30.506Z,3.30
2018-07-03T05:02:30.471Z,3.50
2018-07-03T05:03:30.446Z,3.80
2018-07-03T05:04:30.409Z,3.40
2018-07-03T05:05:30.381Z,3.60
2018-07-03T05:06:30.351Z,3.90
2018-07-03T05:07:30.308Z,2.90
2018-07-03T05:08:30.282Z,3.50
2018-07-03T05:09:30.248Z,3.10
2018-07-03T05:10:30.219Z,3.40
2018-07-03T05:11:30.181Z,3.90
2018-07-03T05:12:30.151Z,3.60
2018-07-03T05:13:30.119Z,3.20
2018-07-03T05:14:30.086Z,3.70
2018-07-03T05:15:30.055Z,3.00
2018-07-03T05:16:30.020Z,3.00
2018-07-03T05:17:30.043Z,2.90
2018-07-03T05:18:29.953Z,3.30
2018-07-03T05:19:29.924Z,3.80
2018-07-03T05:20:29.890Z,3.40
2018-07-03T05:21:29.859Z,3.70
2018-07-03T05:22:29.825Z,3.30
2018-07-03T05:23:29.798Z,3.20
2018-07-03T05:24:29.958Z,3.30
2018-07-03T05:25:29.728Z,3.40
2018-07-03T05:26:29.699Z,3.50
2018-07-03T05:27:29.677Z,3.50
2018-07-03T05:28:29.630Z,3.60
2018-07-03T05:29:29.603Z,3.30
2018-07-03T05:30:29.765Z,3.10
2018-07-03T05:31:29.546Z,3.80
2018-07-03T05:32:29.507Z,3.80
2018-07-03T05:33:29.470Z,3.40
2018-07-03T05:34:29.463Z,3.50
2018-07-03T05:35:29.407Z,3.60
2018-07-03T05:36:29.382Z,3.10
2018-07-03T05:37:29.342Z,2.90
2018-07-03T05:38:29.311Z,3.60
2018-07-03T05:39:29.275Z,3.00
2018-07-03T05:40:29.238Z,3.50
2018-07-03T05:41:29.208Z,3.20
2018-07-03T05:42:29.175Z,3.20
2018-07-03T05:43:29.160Z,3.20
2018-07-03T05:44:29.113Z,3.30
2018-07-03T05:45:29.078Z,3.30
2018-07-03T05:46:29.159Z,3.50
2018-07-03T05:47:29.013Z,3.30
2018-07-03T05:48:28.978Z,3.10
2018-07-03T05:49:28.947Z,3.00
2018-07-03T05:50:28.911Z,2.90
2018-07-03T05:51:28.879Z,3.80
2018-07-03T05:52:28.847Z,3.50
2018-07-03T05:53:28.819Z,3.50
2018-07-03T05:54:28.780Z,3.90
2018-07-03T05:55:28.753Z,3.40
2018-07-03T05:56:28.873Z,3.40
2018-07-03T05:57:28.684Z,2.80
2018-07-03T05:58:28.652Z,3.10
2018-07-03T05:59:28.619Z,3.20
2018-07-03T06:00:28.589Z,3.40
2018-07-03T06:01:28.551Z,3.60
2018-07-03T06:02:28.519Z,3.70
2018-07-03T06:03:28.489Z,3.30
2018-07-03T06:04:28.458Z,3.30
2018-07-03T06:05:28.431Z,3.20
2018-07-03T06:06:28.639Z,3.30
2018-07-03T06:07:28.363Z,3.00
2018-07-03T06:08:28.331Z,3.40
2018-07-03T06:09:28.300Z,3.00
2018-07-03T06:10:28.259Z,3.30
2018-07-03T06:11:28.226Z,3.10
2018-07-03T06:12:28.195Z,3.50
2018-07-03T06:13:28.160Z,2.70
2018-07-03T06:14:28.125Z,2.80
2018-07-03T06:15:28.104Z,2.80
2018-07-03T06:16:28.060Z,3.20
2018-07-03T06:17:28.029Z,3.00
2018-07-03T06:18:27.995Z,3.40
2018-07-03T06:19:27.964Z,3.10
2018-07-03T06:20:27.935Z,3.30
2018-07-03T06:21:27.896Z,2.80
2018-07-03T06:22:28.022Z,3.30
2018-07-03T06:23:27.834Z,2.90
2018-07-03T06:24:27.799Z,3.00
2018-07-03T06:25:27.769Z,3.20
2018-07-03T06:26:27.731Z,3.30
2018-07-03T06:27:27.703Z,3.60
2018-07-03T06:28:27.666Z,3.90
2018-07-03T06:29:27.632Z,3.00
2018-07-03T06:30:27.601Z,2.80
2018-07-03T06:31:27.566Z,2.90
2018-07-03T06:32:27.539Z,3.00
2018-07-03T06:33:27.501Z,3.20
2018-07-03T06:34:27.468Z,2.80
2018-07-03T06:35:27.440Z,2.90
2018-07-03T06:36:27.405Z,2.90
2018-07-03T06:37:27.463Z,2.90
2018-07-03T06:38:27.357Z,2.80
2018-07-03T06:39:27.305Z,2.50
2018-07-03T06:40:27.275Z,2.40
2018-07-03T06:41:27.239Z,2.80
2018-07-03T06:42:27.202Z,2.70
2018-07-03T06:43:27.174Z,2.80
2018-07-03T06:44:27.140Z,2.90
2018-07-03T06:45:27.109Z,2.70
2018-07-03T06:46:27.073Z,2.20
2018-07-03T06:47:27.259Z,2.70
2018-07-03T06:48:27.006Z,2.60
2018-07-03T06:49:26.976Z,2.20
2018-07-03T06:50:26.940Z,2.50
2018-07-03T06:51:27.039Z,2.60
2018-07-03T06:52:26.883Z,2.40
2018-07-03T06:53:26.847Z,3.20
2018-07-03T06:54:27.058Z,2.30
2018-07-03T06:55:26.782Z,2.40
2018-07-03T06:56:26.744Z,2.40
2018-07-03T06:57:26.713Z,2.30
2018-07-03T06:58:26.678Z,2.50
2018-07-03T06:59:26.673Z,3.10
2018-07-03T07:00:26.711Z,2.80
2018-07-03T07:01:26.579Z,2.90
2018-07-03T07:02:26.547Z,3.30
2018-07-03T07:03:26.512Z,2.80
2018-07-03T07:04:26.479Z,2.90
2018-07-03T07:05:26.448Z,2.70
2018-07-03T07:06:26.413Z,2.90
2018-07-03T07:07:26.387Z,2.90
2018-07-03T07:08:26.358Z,2.70
2018-07-03T07:09:26.360Z,3.00
2018-07-03T07:10:26.289Z,3.40
2018-07-03T07:11:26.247Z,3.10
2018-07-03T07:12:26.225Z,2.90
2018-07-03T07:13:26.186Z,3.00
2018-07-03T07:14:26.149Z,3.00
2018-07-03T07:15:26.123Z,2.90
2018-07-03T07:16:26.083Z,3.20
2018-07-03T07:17:26.049Z,2.90
2018-07-03T07:18:26.023Z,2.90
2018-07-03T07:19:25.988Z,3.50
2018-07-03T07:21:25.917Z,2.30
2018-07-03T07:22:25.896Z,2.90
2018-07-03T07:23:25.856Z,3.20
2018-07-03T07:24:25.820Z,3.00
2018-07-03T07:25:25.785Z,3.40
2018-07-03T07:26:25.753Z,3.40
2018-07-03T07:27:25.722Z,3.30
2018-07-03T07:28:25.694Z,3.10
2018-07-03T07:29:25.653Z,3.00
2018-07-03T07:31:25.590Z,2.40
2018-07-03T07:32:25.560Z,2.90
2018-07-03T07:33:25.520Z,3.10
2018-07-03T07:34:25.505Z,3.30
2018-07-03T07:35:25.453Z,3.00
2018-07-03T07:36:25.422Z,3.30
2018-07-03T07:37:25.387Z,3.20
2018-07-03T07:38:25.365Z,3.20
2018-07-03T07:39:25.325Z,3.30
2018-07-03T07:40:25.289Z,3.50
2018-07-03T07:41:25.261Z,3.30
2018-07-03T07:42:25.221Z,3.40
2018-07-03T07:43:25.191Z,3.70
2018-07-03T07:44:25.158Z,3.50
2018-07-03T07:45:25.123Z,3.40
2018-07-03T07:47:25.115Z,3.40
2018-07-03T07:48:25.033Z,3.50
2018-07-03T07:49:24.995Z,3.70
2018-07-03T07:50:25.006Z,3.90
2018-07-03T07:51:24.927Z,3.80
2018-07-03T07:52:24.991Z,4.20
2018-07-03T07:53:24.866Z,3.60
2018-07-03T07:54:24.829Z,4.60
2018-07-03T07:55:24.792Z,3.70
2018-07-03T07:56:24.804Z,3.50
2018-07-03T07:57:24.747Z,4.20
2018-07-03T07:58:25.029Z,4.50
2018-07-03T07:59:24.659Z,3.60
2018-07-03T08:00:24.627Z,4.40
2018-07-03T08:01:24.591Z,4.20
2018-07-03T08:02:24.558Z,4.30
2018-07-03T08:03:24.527Z,4.60
2018-07-03T08:04:24.500Z,4.30
2018-07-03T08:05:24.462Z,4.30
2018-07-03T08:06:24.426Z,4.30
2018-07-03T08:07:24.393Z,4.50
2018-07-03T08:08:24.360Z,4.40
2018-07-03T08:09:24.329Z,4.30
2018-07-03T08:10:24.294Z,5.00
2018-07-03T08:11:24.272Z,4.60
2018-07-03T08:12:24.228Z,4.10
2018-07-03T08:13:24.274Z,4.50
2018-07-03T08:14:24.181Z,4.80
2018-07-03T08:15:24.130Z,4.10
2018-07-03T08:16:24.097Z,4.00
2018-07-03T08:17:24.063Z,5.00
2018-07-03T08:18:24.031Z,4.50
2018-07-03T08:19:24.000Z,4.80
2018-07-03T08:20:23.967Z,4.40
2018-07-03T08:21:23.931Z,4.30
2018-07-03T08:22:23.895Z,4.20
2018-07-03T08:23:23.863Z,4.60
2018-07-03T08:24:23.831Z,4.70
2018-07-03T08:25:23.798Z,4.70
2018-07-03T08:26:23.870Z,4.80
2018-07-03T08:27:23.726Z,4.00
2018-07-03T08:28:23.695Z,4.70
2018-07-03T08:29:23.662Z,4.80
2018-07-03T08:30:23.633Z,4.30
2018-07-03T08:32:23.597Z,3.30
2018-07-03T08:33:23.530Z,4.70
2018-07-03T08:34:23.501Z,4.80
2018-07-03T08:35:23.467Z,4.90
2018-07-03T08:36:23.437Z,4.50
2018-07-03T08:37:23.396Z,5.00
2018-07-03T08:38:23.365Z,4.70
2018-07-03T08:39:23.332Z,4.40
2018-07-03T08:40:23.296Z,4.30
2018-07-03T08:41:23.264Z,4.50
2018-07-03T08:42:23.261Z,4.90
2018-07-03T08:43:23.197Z,4.50
2018-07-03T08:44:23.166Z,4.80
2018-07-03T08:45:23.133Z,5.00
2018-07-03T08:46:23.103Z,4.30
2018-07-03T08:47:23.071Z,4.90
2018-07-03T08:48:23.090Z,4.50
2018-07-03T08:49:22.996Z,4.40
2018-07-03T08:50:22.965Z,4.10
2018-07-03T08:51:22.936Z,4.30
2018-07-03T08:52:22.901Z,4.70
2018-07-03T08:53:22.971Z,4.30
2018-07-03T08:54:22.834Z,4.80
2018-07-03T08:55:22.801Z,4.50
2018-07-03T08:56:22.768Z,4.20
2018-07-03T08:57:22.757Z,4.70
2018-07-03T08:58:22.778Z,4.50
2018-07-03T08:59:22.969Z,4.50
2018-07-03T09:00:22.640Z,4.20
2018-07-03T09:01:22.600Z,4.70
2018-07-03T09:02:22.570Z,4.60
2018-07-03T09:03:22.537Z,4.10
2018-07-03T09:04:22.751Z,4.20
2018-07-03T09:05:22.468Z,5.10
2018-07-03T09:06:22.439Z,4.60
2018-07-03T09:07:22.403Z,4.60
2018-07-03T09:08:22.379Z,4.60
2018-07-03T09:09:22.335Z,5.00
2018-07-03T09:10:22.302Z,5.20
2018-07-03T09:11:22.272Z,5.30
2018-07-03T09:12:22.238Z,5.50
2018-07-03T09:13:22.202Z,5.40
2018-07-03T09:14:22.174Z,5.00
2018-07-03T09:15:22.141Z,4.30
2018-07-03T09:16:22.103Z,4.60
2018-07-03T09:17:22.069Z,4.50
2018-07-03T09:18:22.039Z,5.00
2018-07-03T09:19:22.003Z,4.70
2018-07-03T09:20:21.971Z,4.80
2018-07-03T09:21:21.940Z,5.30
2018-07-03T09:22:21.904Z,4.30
2018-07-03T09:23:21.872Z,4.80
2018-07-03T09:24:21.854Z,4.20
2018-07-03T09:25:21.822Z,4.60
2018-07-03T09:26:21.770Z,4.30
2018-07-03T09:27:21.752Z,4.80
2018-07-03T09:28:21.728Z,4.90
2018-07-03T09:29:21.671Z,4.90
2018-07-03T09:30:21.646Z,4.90
2018-07-03T09:31:21.607Z,4.60
2018-07-03T09:32:21.573Z,5.00
2018-07-03T09:33:21.537Z,4.50
2018-07-03T09:34:21.503Z,4.90
2018-07-03T09:35:21.676Z,5.00
2018-07-03T09:36:21.472Z,4.80
2018-07-03T09:37:21.404Z,4.50
2018-07-03T09:38:21.410Z,5.00
2018-07-03T09:39:21.347Z,4.30
2018-07-03T09:40:21.305Z,4.30
2018-07-03T09:41:21.273Z,4.60
2018-07-03T09:42:21.242Z,4.90
2018-07-03T09:43:21.207Z,4.60
2018-07-03T09:44:21.178Z,4.60
2018-07-03T09:45:21.143Z,4.80
2018-07-03T09:46:21.103Z,4.50
2018-07-03T09:47:21.075Z,5.00
2018-07-03T09:48:21.053Z,5.20
2018-07-03T09:49:21.005Z,4.60
2018-07-03T09:50:20.973Z,4.90
2018-07-03T09:51:21.140Z,4.90
2018-07-03T09:52:20.912Z,5.30
2018-07-03T09:53:20.873Z,4.40
2018-07-03T09:54:20.845Z,4.60
2018-07-03T09:55:20.810Z,4.00
2018-07-03T09:56:20.775Z,4.90
2018-07-03T09:57:20.852Z,5.00
2018-07-03T09:58:20.712Z,5.00
2018-07-03T09:59:20.707Z,4.60
2018-07-03T10:00:20.647Z,4.40
2018-07-03T10:01:20.613Z,4.50
2018-07-03T10:02:20.574Z,4.40
2018-07-03T10:03:20.545Z,4.60
2018-07-03T10:04:20.567Z,4.30
2018-07-03T10:05:20.482Z,4.70
2018-07-03T10:06:20.444Z,4.80
2018-07-03T10:07:20.409Z,4.50
2018-07-03T10:08:20.373Z,4.40
2018-07-03T10:09:20.351Z,4.80
2018-07-03T10:10:20.315Z,4.30
2018-07-03T10:11:20.277Z,4.30
2018-07-03T10:12:20.256Z,4.90
2018-07-03T10:13:20.219Z,4.60
2018-07-03T10:14:20.186Z,4.60
2018-07-03T10:15:20.143Z,4.50
2018-07-03T10:16:20.110Z,4.90
2018-07-03T10:17:20.080Z,4.50
2018-07-03T10:18:20.046Z,4.20
2018-07-03T10:19:20.013Z,4.20
2018-07-03T10:20:19.981Z,3.90
2018-07-03T10:21:19.950Z,4.80
2018-07-03T10:22:19.911Z,4.50
2018-07-03T10:23:19.884Z,4.50
2018-07-03T10:24:19.848Z,4.10
2018-07-03T10:25:19.816Z,4.00
2018-07-03T10:26:19.781Z,4.20
2018-07-03T10:27:19.754Z,3.80
2018-07-03T10:28:19.715Z,3.50
2018-07-03T10:29:19.682Z,3.30
2018-07-03T10:30:19.672Z,3.50
2018-07-03T10:31:19.655Z,4.00
2018-07-03T10:32:19.585Z,3.60
2018-07-03T10:33:19.564Z,3.80
2018-07-03T10:34:19.676Z,3.50
2018-07-03T10:35:19.490Z,3.50
2018-07-03T10:36:19.467Z,3.60
2018-07-03T10:37:19.423Z,3.60
2018-07-03T10:38:19.394Z,4.00
2018-07-03T10:39:19.368Z,3.70
2018-07-03T10:41:19.292Z,2.70
2018-07-03T10:42:19.264Z,3.50
2018-07-03T10:43:19.236Z,3.20
2018-07-03T10:44:19.205Z,3.70
2018-07-03T10:45:19.164Z,3.90
2018-07-03T10:46:19.133Z,4.20
2018-07-03T10:47:19.101Z,3.60
2018-07-03T10:48:19.077Z,4.30
2018-07-03T10:49:19.063Z,3.20
2018-07-03T10:50:19.180Z,3.40
2018-07-03T10:51:18.970Z,3.50
2018-07-03T10:52:18.939Z,3.80
2018-07-03T10:53:18.909Z,3.90
2018-07-03T10:54:18.875Z,4.00
2018-07-03T10:55:18.844Z,4.10
2018-07-03T10:56:19.161Z,4.10
2018-07-03T10:57:18.781Z,3.90
2018-07-03T10:58:18.744Z,4.40
2018-07-03T10:59:18.725Z,5.10
2018-07-03T11:00:18.683Z,5.30
2018-07-03T11:01:18.651Z,5.40
2018-07-03T11:02:18.848Z,6.80
2018-07-03T11:03:18.595Z,7.40
2018-07-03T11:04:18.575Z,6.80
2018-07-03T11:05:18.521Z,7.10
2018-07-03T11:06:18.492Z,7.30
2018-07-03T11:07:18.466Z,7.40
2018-07-03T11:08:18.430Z,6.90
2018-07-03T11:09:18.395Z,6.50
2018-07-03T11:10:18.365Z,5.60
2018-07-03T11:11:18.334Z,5.90
2018-07-03T11:12:18.303Z,7.20
2018-07-03T11:13:18.272Z,6.50
2018-07-03T11:14:18.240Z,6.10
2018-07-03T11:15:18.208Z,5.10
2018-07-03T11:16:18.178Z,5.00
2018-07-03T11:17:18.143Z,5.40
2018-07-03T11:18:18.109Z,5.30
2018-07-03T11:19:18.081Z,5.40
2018-07-03T11:20:18.090Z,5.40
2018-07-03T11:21:18.020Z,5.50
2018-07-03T11:22:18.008Z,5.60
2018-07-03T11:23:18.213Z,5.00
2018-07-03T11:24:17.923Z,5.10
2018-07-03T11:25:17.896Z,4.90
2018-07-03T11:26:17.890Z,5.70
2018-07-03T11:27:17.836Z,5.30
2018-07-03T11:28:17.797Z,5.10
2018-07-03T11:29:18.016Z,5.00
2018-07-03T11:30:17.744Z,4.70
2018-07-03T11:31:17.799Z,4.80
2018-07-03T11:32:17.704Z,5.40
2018-07-03T11:33:17.642Z,5.20
2018-07-03T11:34:17.616Z,4.90
2018-07-03T11:35:17.589Z,4.70
2018-07-03T11:36:17.555Z,4.90
2018-07-03T11:37:17.524Z,4.80
2018-07-03T11:38:17.489Z,4.90
2018-07-03T11:39:17.467Z,4.80
2018-07-03T11:40:17.444Z,4.70
2018-07-03T11:41:17.409Z,4.40
2018-07-03T11:42:17.368Z,4.40
2018-07-03T11:43:17.395Z,4.70
2018-07-03T11:44:17.314Z,5.30
2018-07-03T11:45:17.275Z,4.80
2018-07-03T11:46:17.240Z,4.90
2018-07-03T11:47:17.237Z,4.80
2018-07-03T11:48:17.193Z,4.70
2018-07-03T11:49:17.156Z,4.90
2018-07-03T11:50:17.122Z,4.70
2018-07-03T11:51:17.091Z,5.20
2018-07-03T11:52:17.064Z,4.50
2018-07-03T11:53:17.029Z,4.40
2018-07-03T11:54:16.999Z,4.30
2018-07-03T11:55:17.176Z,4.40
2018-07-03T11:56:16.944Z,4.50
2018-07-03T11:57:16.906Z,4.40
2018-07-03T11:58:16.882Z,4.40
2018-07-03T11:59:16.853Z,3.70
2018-07-03T12:00:16.825Z,3.90
2018-07-03T12:01:17.041Z,4.10
2018-07-03T12:02:16.759Z,3.90
2018-07-03T12:03:16.733Z,3.80
2018-07-03T12:04:16.739Z,3.50
2018-07-03T12:05:16.663Z,3.30
2018-07-03T12:06:16.639Z,3.50
2018-07-03T12:07:16.610Z,3.70
2018-07-03T12:08:16.576Z,3.70
2018-07-03T12:09:16.546Z,3.80
2018-07-03T12:10:16.519Z,3.40
2018-07-03T12:11:16.543Z,3.90
2018-07-03T12:12:16.464Z,3.70
2018-07-03T12:13:16.438Z,5.00
2018-07-03T12:14:16.395Z,4.30
2018-07-03T12:15:16.369Z,3.80
2018-07-03T12:16:16.338Z,3.70
2018-07-03T12:17:16.378Z,3.90
2018-07-03T12:18:16.293Z,3.80
2018-07-03T12:19:16.250Z,3.80
2018-07-03T12:20:16.215Z,3.40
2018-07-03T12:21:16.195Z,3.70
2018-07-03T12:22:16.158Z,3.90
2018-07-03T12:23:16.136Z,3.60
2018-07-03T12:24:16.110Z,3.30
2018-07-03T12:25:16.089Z,3.60
2018-07-03T12:26:16.053Z,3.30
2018-07-03T12:27:16.025Z,3.30
2018-07-03T12:28:16.150Z,2.90
2018-07-03T12:29:15.987Z,3.00
2018-07-03T12:30:15.938Z,3.20
2018-07-03T12:31:15.909Z,2.70
2018-07-03T12:32:15.880Z,2.60
2018-07-03T12:33:16.699Z,2.60
2018-07-03T12:34:16.385Z,2.50
2018-07-03T12:35:15.881Z,2.40
2018-07-03T12:36:15.785Z,2.60
2018-07-03T12:37:15.970Z,2.60
2018-07-03T12:38:15.841Z,2.40
2018-07-03T12:39:15.902Z,2.30
2018-07-03T12:40:15.827Z,2.60
2018-07-03T12:43:15.582Z,1.60
2018-07-03T12:44:15.589Z,2.80
2018-07-03T12:45:15.664Z,2.20
2018-07-03T12:46:15.773Z,2.50
2018-07-03T12:47:15.613Z,2.70
2018-07-03T12:48:15.762Z,2.70
2018-07-03T12:49:16.215Z,2.90
2018-07-03T12:50:15.520Z,2.60
2018-07-03T12:51:15.655Z,2.50
2018-07-03T12:52:15.588Z,3.10
2018-07-03T12:53:15.611Z,2.80
2018-07-03T12:54:15.352Z,2.60
2018-07-03T12:55:15.358Z,3.00
2018-07-03T12:56:15.470Z,2.60
2018-07-03T12:57:15.371Z,3.10
2018-07-03T12:58:15.284Z,2.50
2018-07-03T12:59:15.288Z,3.00
2018-07-03T13:00:15.256Z,2.80
2018-07-03T13:01:15.228Z,2.90
2018-07-03T13:02:15.356Z,2.70
2018-07-03T13:03:15.132Z,3.00
2018-07-03T13:04:15.105Z,2.90
2018-07-03T13:05:15.085Z,3.10
2018-07-03T13:06:15.076Z,2.90
2018-07-03T13:07:15.033Z,2.60
2018-07-03T13:08:15.280Z,2.30
2018-07-03T13:09:15.120Z,3.10
2018-07-03T13:10:16.523Z,2.60
2018-07-03T13:11:14.805Z,2.90
2018-07-03T13:12:15.001Z,3.10
2018-07-03T13:13:14.936Z,2.90
2018-07-03T13:15:15.072Z,2.00
2018-07-03T13:16:14.829Z,2.50
2018-07-03T13:17:15.375Z,2.90
2018-07-03T13:18:14.772Z,3.40
2018-07-03T13:19:14.960Z,3.50
2018-07-03T13:20:14.930Z,3.40
2018-07-03T13:21:14.890Z,3.10
2018-07-03T13:22:14.637Z,3.30
2018-07-03T13:23:14.756Z,3.00
2018-07-03T13:24:14.692Z,2.50
2018-07-03T13:25:14.810Z,2.90
2018-07-03T13:26:14.515Z,3.00